sensor_id;sensor_type;location;lat;lon;timestamp;temperature;humidity
22635;DHT22;11484;50.858;4.384;2023-10-09T00:00:13;19.70;99.90
22635;DHT22;11484;50.858;4.384;2023-10-09T00:02:57;19.70;99.90
22635;DHT22;11484;50.858;4.384;2023-10-09T00:05:27;19.70;99.90
22635;DHT22;11484;50.858;4.384;2023-10-09T00:08:15;19.70;99.90
22635;DHT22;11484;50.858;4.384;2023-10-09T00:10:47;19.60;99.90
22635;DHT22;11484;50.858;4.384;2023-10-09T00:13:24;19.60;99.90
22635;DHT22;11484;50.858;4.384;2023-10-09T00:16:05;19.50;99.90
22635;DHT22;11484;50.858;4.384;2023-10-09T00:18:39;19.60;99.90
22635;DHT22;11484;50.858;4.384;2023-10-09T00:21:14;19.60;99.90
22635;DHT22;11484;50.858;4.384;2023-10-09T00:23:41;19.50;99.90
22635;DHT22;11484;50.858;4.384;2023-10-09T00:26:08;19.40;99.90
22635;DHT22;11484;50.858;4.384;2023-10-09T00:28:38;19.50;99.90
22635;DHT22;11484;50.858;4.384;2023-10-09T00:31:09;19.40;99.90
22635;DHT22;11484;50.858;4.384;2023-10-09T00:33:40;19.40;99.90
22635;DHT22;11484;50.858;4.384;2023-10-09T00:36:07;19.40;99.90
22635;DHT22;11484;50.858;4.384;2023-10-09T00:38:39;19.30;99.90
22635;DHT22;11484;50.858;4.384;2023-10-09T00:41:05;19.30;99.90
22635;DHT22;11484;50.858;4.384;2023-10-09T00:43:34;19.30;99.90
22635;DHT22;11484;50.858;4.384;2023-10-09T00:46:02;19.20;99.90
22635;DHT22;11484;50.858;4.384;2023-10-09T00:48:33;19.30;99.90
22635;DHT22;11484;50.858;4.384;2023-10-09T00:51:05;19.20;99.90
22635;DHT22;11484;50.858;4.384;2023-10-09T00:53:43;19.20;99.90
22635;DHT22;11484;50.858;4.384;2023-10-09T00:56:09;19.20;99.90
22635;DHT22;11484;50.858;4.384;2023-10-09T00:58:47;19.10;99.90
22635;DHT22;11484;50.858;4.384;2023-10-09T01:01:29;19.10;99.90
22635;DHT22;11484;50.858;4.384;2023-10-09T01:04:03;19.10;99.90
22635;DHT22;11484;50.858;4.384;2023-10-09T01:06:37;19.10;99.90
22635;DHT22;11484;50.858;4.384;2023-10-09T01:09:12;19.00;99.90
22635;DHT22;11484;50.858;4.384;2023-10-09T01:11:41;19.10;99.90
22635;DHT22;11484;50.858;4.384;2023-10-09T01:14:15;19.00;99.90
22635;DHT22;11484;50.858;4.384;2023-10-09T01:16:41;19.00;99.90
22635;DHT22;11484;50.858;4.384;2023-10-09T01:19:07;19.00;99.90
22635;DHT22;11484;50.858;4.384;2023-10-09T01:21:49;19.00;99.90
22635;DHT22;11484;50.858;4.384;2023-10-09T01:24:15;18.90;99.90
22635;DHT22;11484;50.858;4.384;2023-10-09T01:26:42;18.80;99.90
22635;DHT22;11484;50.858;4.384;2023-10-09T01:29:30;18.90;99.90
22635;DHT22;11484;50.858;4.384;2023-10-09T01:31:57;18.80;99.90
22635;DHT22;11484;50.858;4.384;2023-10-09T01:34:28;18.80;99.90
22635;DHT22;11484;50.858;4.384;2023-10-09T01:37:21;18.80;99.90
22635;DHT22;11484;50.858;4.384;2023-10-09T01:39:57;18.80;99.90
22635;DHT22;11484;50.858;4.384;2023-10-09T01:42:25;18.70;99.90
22635;DHT22;11484;50.858;4.384;2023-10-09T01:45:00;18.70;99.90
22635;DHT22;11484;50.858;4.384;2023-10-09T01:47:41;18.80;99.90
22635;DHT22;11484;50.858;4.384;2023-10-09T01:50:16;18.70;99.90
22635;DHT22;11484;50.858;4.384;2023-10-09T01:52:58;18.60;99.90
22635;DHT22;11484;50.858;4.384;2023-10-09T01:55:27;18.70;99.90
22635;DHT22;11484;50.858;4.384;2023-10-09T01:57:55;18.70;99.90
22635;DHT22;11484;50.858;4.384;2023-10-09T02:00:23;18.70;99.90
22635;DHT22;11484;50.858;4.384;2023-10-09T02:02:53;18.60;99.90
22635;DHT22;11484;50.858;4.384;2023-10-09T02:05:19;18.70;99.90
22635;DHT22;11484;50.858;4.384;2023-10-09T02:07:45;18.70;99.90
22635;DHT22;11484;50.858;4.384;2023-10-09T02:10:17;18.80;99.90
22635;DHT22;11484;50.858;4.384;2023-10-09T02:13:02;18.80;99.90
22635;DHT22;11484;50.858;4.384;2023-10-09T02:15:39;18.70;99.90
22635;DHT22;11484;50.858;4.384;2023-10-09T02:18:09;18.80;99.90
22635;DHT22;11484;50.858;4.384;2023-10-09T02:20:49;18.70;99.90
22635;DHT22;11484;50.858;4.384;2023-10-09T02:23:30;18.80;99.90
22635;DHT22;11484;50.858;4.384;2023-10-09T02:26:05;18.70;99.90
22635;DHT22;11484;50.858;4.384;2023-10-09T02:28:35;18.70;99.90
22635;DHT22;11484;50.858;4.384;2023-10-09T02:31:09;18.70;99.90
22635;DHT22;11484;50.858;4.384;2023-10-09T02:33:39;18.60;99.90
22635;DHT22;11484;50.858;4.384;2023-10-09T02:36:05;18.60;99.90
22635;DHT22;11484;50.858;4.384;2023-10-09T02:38:32;18.70;99.90
22635;DHT22;11484;50.858;4.384;2023-10-09T02:41:06;18.80;99.90
22635;DHT22;11484;50.858;4.384;2023-10-09T02:43:34;18.70;99.90
22635;DHT22;11484;50.858;4.384;2023-10-09T02:46:19;18.80;99.90
22635;DHT22;11484;50.858;4.384;2023-10-09T02:48:49;18.70;99.90
22635;DHT22;11484;50.858;4.384;2023-10-09T02:51:27;18.70;99.90
22635;DHT22;11484;50.858;4.384;2023-10-09T02:53:57;18.70;99.90
22635;DHT22;11484;50.858;4.384;2023-10-09T02:56:26;18.60;99.90
22635;DHT22;11484;50.858;4.384;2023-10-09T02:59:06;18.60;99.90
22635;DHT22;11484;50.858;4.384;2023-10-09T03:01:32;18.60;99.90
22635;DHT22;11484;50.858;4.384;2023-10-09T03:04:01;18.50;99.90
22635;DHT22;11484;50.858;4.384;2023-10-09T03:06:28;18.60;99.90
22635;DHT22;11484;50.858;4.384;2023-10-09T03:08:58;18.60;99.90
22635;DHT22;11484;50.858;4.384;2023-10-09T03:11:24;18.60;99.90
22635;DHT22;11484;50.858;4.384;2023-10-09T03:13:54;18.60;99.90
22635;DHT22;11484;50.858;4.384;2023-10-09T03:16:23;18.60;99.90
22635;DHT22;11484;50.858;4.384;2023-10-09T03:18:50;18.60;99.90
22635;DHT22;11484;50.858;4.384;2023-10-09T03:21:17;18.60;99.90
22635;DHT22;11484;50.858;4.384;2023-10-09T03:23:46;18.50;99.90
22635;DHT22;11484;50.858;4.384;2023-10-09T03:26:16;18.60;99.90
22635;DHT22;11484;50.858;4.384;2023-10-09T03:28:44;18.50;99.90
22635;DHT22;11484;50.858;4.384;2023-10-09T03:31:11;18.50;99.90
22635;DHT22;11484;50.858;4.384;2023-10-09T03:33:37;18.40;99.90
22635;DHT22;11484;50.858;4.384;2023-10-09T03:36:03;18.40;99.90
22635;DHT22;11484;50.858;4.384;2023-10-09T03:38:33;18.30;99.90
22635;DHT22;11484;50.858;4.384;2023-10-09T03:41:02;18.30;99.90
22635;DHT22;11484;50.858;4.384;2023-10-09T03:43:34;18.30;99.90
22635;DHT22;11484;50.858;4.384;2023-10-09T03:46:08;18.30;99.90
22635;DHT22;11484;50.858;4.384;2023-10-09T03:48:48;18.20;99.90
22635;DHT22;11484;50.858;4.384;2023-10-09T03:51:14;18.20;99.90
22635;DHT22;11484;50.858;4.384;2023-10-09T03:53:52;18.20;99.90
22635;DHT22;11484;50.858;4.384;2023-10-09T03:56:21;18.20;99.90
22635;DHT22;11484;50.858;4.384;2023-10-09T03:58:50;18.20;99.90
22635;DHT22;11484;50.858;4.384;2023-10-09T04:01:19;18.10;99.90
22635;DHT22;11484;50.858;4.384;2023-10-09T04:03:47;18.10;99.90
22635;DHT22;11484;50.858;4.384;2023-10-09T04:06:13;18.10;99.90
22635;DHT22;11484;50.858;4.384;2023-10-09T04:08:40;18.10;99.90
22635;DHT22;11484;50.858;4.384;2023-10-09T04:11:13;18.10;99.90
22635;DHT22;11484;50.858;4.384;2023-10-09T04:13:45;18.20;99.90
22635;DHT22;11484;50.858;4.384;2023-10-09T04:16:15;18.10;99.90
22635;DHT22;11484;50.858;4.384;2023-10-09T04:18:59;18.10;99.90
22635;DHT22;11484;50.858;4.384;2023-10-09T04:21:31;18.10;99.90
22635;DHT22;11484;50.858;4.384;2023-10-09T04:24:01;18.10;99.90
22635;DHT22;11484;50.858;4.384;2023-10-09T04:26:40;18.10;99.90
22635;DHT22;11484;50.858;4.384;2023-10-09T04:29:16;18.10;99.90
22635;DHT22;11484;50.858;4.384;2023-10-09T04:32:05;18.10;99.90
22635;DHT22;11484;50.858;4.384;2023-10-09T04:34:41;18.10;99.90
22635;DHT22;11484;50.858;4.384;2023-10-09T04:37:14;18.10;99.90
22635;DHT22;11484;50.858;4.384;2023-10-09T04:39:41;18.20;99.90
22635;DHT22;11484;50.858;4.384;2023-10-09T04:42:36;18.10;99.90
22635;DHT22;11484;50.858;4.384;2023-10-09T04:45:06;18.10;99.90
22635;DHT22;11484;50.858;4.384;2023-10-09T04:47:33;18.20;99.90
22635;DHT22;11484;50.858;4.384;2023-10-09T04:50:06;18.10;99.90
22635;DHT22;11484;50.858;4.384;2023-10-09T04:53:04;18.10;99.90
22635;DHT22;11484;50.858;4.384;2023-10-09T04:55:41;18.10;99.90
22635;DHT22;11484;50.858;4.384;2023-10-09T04:58:23;18.10;99.90
22635;DHT22;11484;50.858;4.384;2023-10-09T05:00:55;18.10;99.90
22635;DHT22;11484;50.858;4.384;2023-10-09T05:03:24;18.00;99.90
22635;DHT22;11484;50.858;4.384;2023-10-09T05:05:55;18.00;99.90
22635;DHT22;11484;50.858;4.384;2023-10-09T05:08:25;17.90;99.90
22635;DHT22;11484;50.858;4.384;2023-10-09T05:10:52;18.00;99.90
22635;DHT22;11484;50.858;4.384;2023-10-09T05:13:37;18.00;99.90
22635;DHT22;11484;50.858;4.384;2023-10-09T05:16:14;18.10;99.90
22635;DHT22;11484;50.858;4.384;2023-10-09T05:18:55;18.10;99.90
22635;DHT22;11484;50.858;4.384;2023-10-09T05:21:35;18.00;99.90
22635;DHT22;11484;50.858;4.384;2023-10-09T05:24:04;18.00;99.90
22635;DHT22;11484;50.858;4.384;2023-10-09T05:26:43;18.10;99.90
22635;DHT22;11484;50.858;4.384;2023-10-09T05:29:15;18.10;99.90
22635;DHT22;11484;50.858;4.384;2023-10-09T05:32:06;17.90;99.90
22635;DHT22;11484;50.858;4.384;2023-10-09T05:34:39;17.90;99.90
22635;DHT22;11484;50.858;4.384;2023-10-09T05:37:28;17.80;99.90
22635;DHT22;11484;50.858;4.384;2023-10-09T05:40:04;17.90;99.90
22635;DHT22;11484;50.858;4.384;2023-10-09T05:42:43;17.90;99.90
22635;DHT22;11484;50.858;4.384;2023-10-09T05:45:13;17.80;99.90
22635;DHT22;11484;50.858;4.384;2023-10-09T05:47:57;17.80;99.90
22635;DHT22;11484;50.858;4.384;2023-10-09T05:50:30;17.80;99.90
22635;DHT22;11484;50.858;4.384;2023-10-09T05:53:21;17.70;99.90
22635;DHT22;11484;50.858;4.384;2023-10-09T05:56:05;17.80;99.90
22635;DHT22;11484;50.858;4.384;2023-10-09T05:58:50;17.80;99.90
22635;DHT22;11484;50.858;4.384;2023-10-09T06:01:33;17.80;99.90
22635;DHT22;11484;50.858;4.384;2023-10-09T06:04:18;17.80;99.90
22635;DHT22;11484;50.858;4.384;2023-10-09T06:06:45;17.90;99.90
22635;DHT22;11484;50.858;4.384;2023-10-09T06:09:14;17.90;99.90
22635;DHT22;11484;50.858;4.384;2023-10-09T06:11:47;17.90;99.90
22635;DHT22;11484;50.858;4.384;2023-10-09T06:14:20;17.90;99.90
22635;DHT22;11484;50.858;4.384;2023-10-09T06:16:55;17.90;99.90
22635;DHT22;11484;50.858;4.384;2023-10-09T06:19:39;18.00;99.90
22635;DHT22;11484;50.858;4.384;2023-10-09T06:22:14;17.90;99.90
22635;DHT22;11484;50.858;4.384;2023-10-09T06:24:59;17.90;99.90
22635;DHT22;11484;50.858;4.384;2023-10-09T06:27:35;17.90;99.90
22635;DHT22;11484;50.858;4.384;2023-10-09T06:30:01;17.90;99.90
22635;DHT22;11484;50.858;4.384;2023-10-09T06:32:42;17.80;99.90
22635;DHT22;11484;50.858;4.384;2023-10-09T06:35:20;17.80;99.90
22635;DHT22;11484;50.858;4.384;2023-10-09T06:37:57;17.90;99.90
22635;DHT22;11484;50.858;4.384;2023-10-09T06:40:29;17.90;99.90
22635;DHT22;11484;50.858;4.384;2023-10-09T06:43:04;18.00;99.90
22635;DHT22;11484;50.858;4.384;2023-10-09T06:45:40;18.00;99.90
22635;DHT22;11484;50.858;4.384;2023-10-09T06:48:10;17.90;99.90
22635;DHT22;11484;50.858;4.384;2023-10-09T06:50:57;17.90;99.90
22635;DHT22;11484;50.858;4.384;2023-10-09T06:53:59;17.80;99.90
22635;DHT22;11484;50.858;4.384;2023-10-09T06:56:30;17.80;99.90
22635;DHT22;11484;50.858;4.384;2023-10-09T06:59:05;17.90;99.90
22635;DHT22;11484;50.858;4.384;2023-10-09T07:01:50;17.90;99.90
22635;DHT22;11484;50.858;4.384;2023-10-09T07:04:35;17.90;99.90
22635;DHT22;11484;50.858;4.384;2023-10-09T07:07:01;18.00;99.90
22635;DHT22;11484;50.858;4.384;2023-10-09T07:09:33;18.10;99.90
22635;DHT22;11484;50.858;4.384;2023-10-09T07:12:09;18.20;99.90
22635;DHT22;11484;50.858;4.384;2023-10-09T07:14:52;18.20;99.90
22635;DHT22;11484;50.858;4.384;2023-10-09T07:17:29;18.30;99.90
22635;DHT22;11484;50.858;4.384;2023-10-09T07:20:15;18.40;99.90
22635;DHT22;11484;50.858;4.384;2023-10-09T07:23:01;18.50;99.90
22635;DHT22;11484;50.858;4.384;2023-10-09T07:25:42;18.60;99.90
22635;DHT22;11484;50.858;4.384;2023-10-09T07:28:21;18.60;99.90
22635;DHT22;11484;50.858;4.384;2023-10-09T07:31:08;18.60;99.90
22635;DHT22;11484;50.858;4.384;2023-10-09T07:33:42;18.50;99.90
22635;DHT22;11484;50.858;4.384;2023-10-09T07:36:22;18.40;99.90
22635;DHT22;11484;50.858;4.384;2023-10-09T07:39:08;18.40;99.90
22635;DHT22;11484;50.858;4.384;2023-10-09T07:41:41;18.50;99.90
22635;DHT22;11484;50.858;4.384;2023-10-09T07:44:30;18.50;99.90
22635;DHT22;11484;50.858;4.384;2023-10-09T07:47:05;18.50;99.90
22635;DHT22;11484;50.858;4.384;2023-10-09T07:49:42;18.60;99.90
22635;DHT22;11484;50.858;4.384;2023-10-09T07:52:14;18.80;99.90
22635;DHT22;11484;50.858;4.384;2023-10-09T07:54:40;19.00;99.90
22635;DHT22;11484;50.858;4.384;2023-10-09T07:57:16;19.20;99.90
22635;DHT22;11484;50.858;4.384;2023-10-09T07:59:42;19.50;99.90
22635;DHT22;11484;50.858;4.384;2023-10-09T08:02:21;19.50;99.90
22635;DHT22;11484;50.858;4.384;2023-10-09T08:05:00;19.60;99.90
22635;DHT22;11484;50.858;4.384;2023-10-09T08:07:31;19.70;99.90
22635;DHT22;11484;50.858;4.384;2023-10-09T08:10:04;19.60;99.90
22635;DHT22;11484;50.858;4.384;2023-10-09T08:12:39;19.60;99.90
22635;DHT22;11484;50.858;4.384;2023-10-09T08:15:24;19.60;99.90
22635;DHT22;11484;50.858;4.384;2023-10-09T08:18:16;19.60;99.90
22635;DHT22;11484;50.858;4.384;2023-10-09T08:20:54;19.70;99.90
22635;DHT22;11484;50.858;4.384;2023-10-09T08:23:23;19.80;99.90
22635;DHT22;11484;50.858;4.384;2023-10-09T08:26:04;19.80;99.90
22635;DHT22;11484;50.858;4.384;2023-10-09T08:28:43;19.70;99.90
22635;DHT22;11484;50.858;4.384;2023-10-09T08:31:14;19.60;99.90
22635;DHT22;11484;50.858;4.384;2023-10-09T08:34:14;19.60;99.90
22635;DHT22;11484;50.858;4.384;2023-10-09T08:36:52;19.80;99.90
22635;DHT22;11484;50.858;4.384;2023-10-09T08:39:22;19.90;99.90
22635;DHT22;11484;50.858;4.384;2023-10-09T08:41:54;20.00;99.90
22635;DHT22;11484;50.858;4.384;2023-10-09T08:44:28;20.10;99.90
22635;DHT22;11484;50.858;4.384;2023-10-09T08:46:57;20.10;99.90
22635;DHT22;11484;50.858;4.384;2023-10-09T08:49:24;20.10;99.90
22635;DHT22;11484;50.858;4.384;2023-10-09T08:51:51;20.20;99.90
22635;DHT22;11484;50.858;4.384;2023-10-09T08:54:18;20.20;99.90
22635;DHT22;11484;50.858;4.384;2023-10-09T08:56:46;20.30;99.90
22635;DHT22;11484;50.858;4.384;2023-10-09T08:59:15;20.30;99.90
22635;DHT22;11484;50.858;4.384;2023-10-09T09:01:50;20.40;99.90
22635;DHT22;11484;50.858;4.384;2023-10-09T09:07:04;20.50;99.90
22635;DHT22;11484;50.858;4.384;2023-10-09T09:09:31;20.60;99.90
22635;DHT22;11484;50.858;4.384;2023-10-09T09:11:59;20.60;99.90
22635;DHT22;11484;50.858;4.384;2023-10-09T09:14:36;20.70;99.90
22635;DHT22;11484;50.858;4.384;2023-10-09T09:17:03;20.80;99.90
22635;DHT22;11484;50.858;4.384;2023-10-09T09:19:31;20.90;99.90
22635;DHT22;11484;50.858;4.384;2023-10-09T09:21:58;20.90;99.90
22635;DHT22;11484;50.858;4.384;2023-10-09T09:24:38;21.00;99.90
22635;DHT22;11484;50.858;4.384;2023-10-09T09:27:05;21.10;99.90
22635;DHT22;11484;50.858;4.384;2023-10-09T09:29:47;21.20;99.90
22635;DHT22;11484;50.858;4.384;2023-10-09T09:32:31;21.10;99.90
22635;DHT22;11484;50.858;4.384;2023-10-09T09:35:04;21.30;99.90
22635;DHT22;11484;50.858;4.384;2023-10-09T09:37:52;21.30;99.90
22635;DHT22;11484;50.858;4.384;2023-10-09T09:40:18;21.40;99.90
22635;DHT22;11484;50.858;4.384;2023-10-09T09:43:00;21.50;99.90
22635;DHT22;11484;50.858;4.384;2023-10-09T09:45:39;21.60;99.90
22635;DHT22;11484;50.858;4.384;2023-10-09T09:48:14;21.60;99.90
22635;DHT22;11484;50.858;4.384;2023-10-09T09:50:41;21.70;99.90
22635;DHT22;11484;50.858;4.384;2023-10-09T09:53:14;21.80;99.90
22635;DHT22;11484;50.858;4.384;2023-10-09T09:55:51;21.80;99.90
22635;DHT22;11484;50.858;4.384;2023-10-09T09:58:24;21.90;99.90
22635;DHT22;11484;50.858;4.384;2023-10-09T10:00:57;22.00;99.90
22635;DHT22;11484;50.858;4.384;2023-10-09T10:03:34;21.90;99.90
22635;DHT22;11484;50.858;4.384;2023-10-09T10:06:04;21.90;99.90
22635;DHT22;11484;50.858;4.384;2023-10-09T10:08:35;22.00;99.90
22635;DHT22;11484;50.858;4.384;2023-10-09T10:11:05;22.10;99.90
22635;DHT22;11484;50.858;4.384;2023-10-09T10:16:07;21.90;99.90
22635;DHT22;11484;50.858;4.384;2023-10-09T10:19:03;21.80;99.90
22635;DHT22;11484;50.858;4.384;2023-10-09T10:21:35;21.70;99.90
22635;DHT22;11484;50.858;4.384;2023-10-09T10:29:46;21.90;99.90
22635;DHT22;11484;50.858;4.384;2023-10-09T10:32:15;22.00;99.90
22635;DHT22;11484;50.858;4.384;2023-10-09T10:37:41;22.10;99.90
22635;DHT22;11484;50.858;4.384;2023-10-09T10:40:25;22.10;99.90
22635;DHT22;11484;50.858;4.384;2023-10-09T10:43:18;22.20;99.90
22635;DHT22;11484;50.858;4.384;2023-10-09T10:46:06;22.20;99.90
22635;DHT22;11484;50.858;4.384;2023-10-09T10:48:50;22.30;99.90
22635;DHT22;11484;50.858;4.384;2023-10-09T10:51:27;22.30;99.90
22635;DHT22;11484;50.858;4.384;2023-10-09T10:54:23;22.30;99.90
22635;DHT22;11484;50.858;4.384;2023-10-09T10:57:18;22.40;99.90
22635;DHT22;11484;50.858;4.384;2023-10-09T11:00:10;22.50;99.90
22635;DHT22;11484;50.858;4.384;2023-10-09T11:03:00;22.30;99.90
22635;DHT22;11484;50.858;4.384;2023-10-09T11:05:41;22.30;99.90
22635;DHT22;11484;50.858;4.384;2023-10-09T11:08:10;22.40;99.90
22635;DHT22;11484;50.858;4.384;2023-10-09T11:10:36;22.50;99.90
22635;DHT22;11484;50.858;4.384;2023-10-09T11:13:01;22.40;99.90
22635;DHT22;11484;50.858;4.384;2023-10-09T11:15:35;22.40;99.90
22635;DHT22;11484;50.858;4.384;2023-10-09T11:18:10;22.50;99.90
22635;DHT22;11484;50.858;4.384;2023-10-09T11:20:56;22.50;99.90
22635;DHT22;11484;50.858;4.384;2023-10-09T11:23:30;22.60;99.90
22635;DHT22;11484;50.858;4.384;2023-10-09T11:26:05;22.70;99.90
22635;DHT22;11484;50.858;4.384;2023-10-09T11:29:11;22.70;99.90
22635;DHT22;11484;50.858;4.384;2023-10-09T11:32:03;22.80;99.90
22635;DHT22;11484;50.858;4.384;2023-10-09T11:34:33;22.60;99.90
22635;DHT22;11484;50.858;4.384;2023-10-09T11:37:12;22.70;99.90
22635;DHT22;11484;50.858;4.384;2023-10-09T11:39:41;22.70;99.90
22635;DHT22;11484;50.858;4.384;2023-10-09T11:42:18;22.70;99.90
22635;DHT22;11484;50.858;4.384;2023-10-09T11:45:03;22.80;99.90
22635;DHT22;11484;50.858;4.384;2023-10-09T11:47:47;22.90;99.90
22635;DHT22;11484;50.858;4.384;2023-10-09T11:50:45;23.00;99.90
22635;DHT22;11484;50.858;4.384;2023-10-09T11:53:43;23.00;99.90
22635;DHT22;11484;50.858;4.384;2023-10-09T11:56:11;23.00;99.90
22635;DHT22;11484;50.858;4.384;2023-10-09T11:58:43;23.10;99.90
22635;DHT22;11484;50.858;4.384;2023-10-09T12:01:13;23.30;99.90
22635;DHT22;11484;50.858;4.384;2023-10-09T12:03:43;23.30;99.90
22635;DHT22;11484;50.858;4.384;2023-10-09T12:06:09;23.10;99.90
22635;DHT22;11484;50.858;4.384;2023-10-09T12:08:38;23.20;99.90
22635;DHT22;11484;50.858;4.384;2023-10-09T12:11:07;23.30;99.90
22635;DHT22;11484;50.858;4.384;2023-10-09T12:13:37;23.30;99.90
22635;DHT22;11484;50.858;4.384;2023-10-09T12:16:04;23.30;99.90
22635;DHT22;11484;50.858;4.384;2023-10-09T12:18:34;23.40;99.90
22635;DHT22;11484;50.858;4.384;2023-10-09T12:21:00;23.40;99.90
22635;DHT22;11484;50.858;4.384;2023-10-09T12:23:30;23.40;99.90
22635;DHT22;11484;50.858;4.384;2023-10-09T12:26:02;23.40;99.90
22635;DHT22;11484;50.858;4.384;2023-10-09T12:28:27;23.40;99.90
22635;DHT22;11484;50.858;4.384;2023-10-09T12:30:54;23.40;99.90
22635;DHT22;11484;50.858;4.384;2023-10-09T12:33:20;23.40;99.90
22635;DHT22;11484;50.858;4.384;2023-10-09T12:35:53;23.50;99.90
22635;DHT22;11484;50.858;4.384;2023-10-09T12:38:28;23.50;99.90
22635;DHT22;11484;50.858;4.384;2023-10-09T12:41:07;23.60;99.90
22635;DHT22;11484;50.858;4.384;2023-10-09T12:43:52;23.60;99.90
22635;DHT22;11484;50.858;4.384;2023-10-09T12:46:36;23.60;99.90
22635;DHT22;11484;50.858;4.384;2023-10-09T12:49:09;23.50;99.90
22635;DHT22;11484;50.858;4.384;2023-10-09T12:52:09;23.60;99.90
22635;DHT22;11484;50.858;4.384;2023-10-09T12:54:42;23.50;99.90
22635;DHT22;11484;50.858;4.384;2023-10-09T12:57:09;23.40;99.90
22635;DHT22;11484;50.858;4.384;2023-10-09T12:59:39;23.40;99.90
22635;DHT22;11484;50.858;4.384;2023-10-09T13:02:13;23.40;99.90
22635;DHT22;11484;50.858;4.384;2023-10-09T13:04:59;23.40;99.90
22635;DHT22;11484;50.858;4.384;2023-10-09T13:07:30;23.30;99.90
22635;DHT22;11484;50.858;4.384;2023-10-09T13:09:55;23.40;99.90
22635;DHT22;11484;50.858;4.384;2023-10-09T13:12:34;23.40;99.90
22635;DHT22;11484;50.858;4.384;2023-10-09T13:15:10;23.30;99.90
22635;DHT22;11484;50.858;4.384;2023-10-09T13:17:39;23.30;99.90
22635;DHT22;11484;50.858;4.384;2023-10-09T13:20:07;23.30;99.90
22635;DHT22;11484;50.858;4.384;2023-10-09T13:22:41;23.40;99.90
22635;DHT22;11484;50.858;4.384;2023-10-09T13:25:08;23.40;99.90
22635;DHT22;11484;50.858;4.384;2023-10-09T13:27:56;23.40;99.90
22635;DHT22;11484;50.858;4.384;2023-10-09T13:30:21;23.30;99.90
22635;DHT22;11484;50.858;4.384;2023-10-09T13:32:50;23.30;99.90
22635;DHT22;11484;50.858;4.384;2023-10-09T13:35:19;23.30;99.90
22635;DHT22;11484;50.858;4.384;2023-10-09T13:37:45;23.20;99.90
22635;DHT22;11484;50.858;4.384;2023-10-09T13:40:20;23.20;99.90
22635;DHT22;11484;50.858;4.384;2023-10-09T13:42:55;23.20;99.90
22635;DHT22;11484;50.858;4.384;2023-10-09T13:45:25;23.40;99.90
22635;DHT22;11484;50.858;4.384;2023-10-09T13:47:53;23.40;99.90
22635;DHT22;11484;50.858;4.384;2023-10-09T13:50:20;23.40;99.90
22635;DHT22;11484;50.858;4.384;2023-10-09T13:52:48;23.30;99.90
22635;DHT22;11484;50.858;4.384;2023-10-09T13:55:14;23.40;99.90
22635;DHT22;11484;50.858;4.384;2023-10-09T13:57:45;23.40;99.90
22635;DHT22;11484;50.858;4.384;2023-10-09T14:00:15;23.60;99.90
22635;DHT22;11484;50.858;4.384;2023-10-09T14:03:01;23.60;99.90
22635;DHT22;11484;50.858;4.384;2023-10-09T14:05:36;23.60;99.90
22635;DHT22;11484;50.858;4.384;2023-10-09T14:08:03;23.60;99.90
22635;DHT22;11484;50.858;4.384;2023-10-09T14:10:33;23.50;99.90
22635;DHT22;11484;50.858;4.384;2023-10-09T14:13:04;23.50;99.90
22635;DHT22;11484;50.858;4.384;2023-10-09T14:15:37;23.60;99.90
22635;DHT22;11484;50.858;4.384;2023-10-09T14:18:06;23.70;99.90
22635;DHT22;11484;50.858;4.384;2023-10-09T14:20:34;23.70;99.90
22635;DHT22;11484;50.858;4.384;2023-10-09T14:23:01;23.70;99.90
22635;DHT22;11484;50.858;4.384;2023-10-09T14:25:35;23.70;99.90
22635;DHT22;11484;50.858;4.384;2023-10-09T14:28:08;23.60;99.90
22635;DHT22;11484;50.858;4.384;2023-10-09T14:30:35;23.70;99.90
22635;DHT22;11484;50.858;4.384;2023-10-09T14:33:13;23.60;99.90
22635;DHT22;11484;50.858;4.384;2023-10-09T14:35:44;23.70;99.90
22635;DHT22;11484;50.858;4.384;2023-10-09T14:38:10;23.60;99.90
22635;DHT22;11484;50.858;4.384;2023-10-09T14:40:49;23.60;99.90
22635;DHT22;11484;50.858;4.384;2023-10-09T14:43:15;23.60;99.90
22635;DHT22;11484;50.858;4.384;2023-10-09T14:45:48;23.60;99.90
22635;DHT22;11484;50.858;4.384;2023-10-09T14:48:17;23.60;99.90
22635;DHT22;11484;50.858;4.384;2023-10-09T14:50:55;23.70;99.90
22635;DHT22;11484;50.858;4.384;2023-10-09T14:53:30;23.70;99.90
22635;DHT22;11484;50.858;4.384;2023-10-09T14:55:59;23.70;99.90
22635;DHT22;11484;50.858;4.384;2023-10-09T14:58:29;23.70;99.90
22635;DHT22;11484;50.858;4.384;2023-10-09T15:00:56;23.70;99.90
22635;DHT22;11484;50.858;4.384;2023-10-09T15:03:22;23.70;99.90
22635;DHT22;11484;50.858;4.384;2023-10-09T15:05:51;23.60;99.90
22635;DHT22;11484;50.858;4.384;2023-10-09T15:08:17;23.60;99.90
22635;DHT22;11484;50.858;4.384;2023-10-09T15:10:52;23.70;99.90
22635;DHT22;11484;50.858;4.384;2023-10-09T15:13:21;23.70;99.90
22635;DHT22;11484;50.858;4.384;2023-10-09T15:15:54;23.60;99.90
22635;DHT22;11484;50.858;4.384;2023-10-09T15:18:21;23.60;99.90
22635;DHT22;11484;50.858;4.384;2023-10-09T15:20:48;23.50;99.90
22635;DHT22;11484;50.858;4.384;2023-10-09T15:23:14;23.40;99.90
22635;DHT22;11484;50.858;4.384;2023-10-09T15:25:40;23.30;99.90
22635;DHT22;11484;50.858;4.384;2023-10-09T15:28:08;23.30;99.90
22635;DHT22;11484;50.858;4.384;2023-10-09T15:30:35;23.20;99.90
22635;DHT22;11484;50.858;4.384;2023-10-09T15:33:06;23.20;99.90
22635;DHT22;11484;50.858;4.384;2023-10-09T15:35:33;23.10;99.90
22635;DHT22;11484;50.858;4.384;2023-10-09T15:38:03;23.10;99.90
22635;DHT22;11484;50.858;4.384;2023-10-09T15:40:32;23.00;99.90
22635;DHT22;11484;50.858;4.384;2023-10-09T15:43:00;23.00;99.90
22635;DHT22;11484;50.858;4.384;2023-10-09T15:45:26;23.00;99.90
22635;DHT22;11484;50.858;4.384;2023-10-09T15:47:55;23.00;99.90
22635;DHT22;11484;50.858;4.384;2023-10-09T15:50:21;22.90;99.90
22635;DHT22;11484;50.858;4.384;2023-10-09T15:52:51;22.90;99.90
22635;DHT22;11484;50.858;4.384;2023-10-09T15:55:21;22.80;99.90
22635;DHT22;11484;50.858;4.384;2023-10-09T15:57:50;22.80;99.90
22635;DHT22;11484;50.858;4.384;2023-10-09T16:00:20;22.80;99.90
22635;DHT22;11484;50.858;4.384;2023-10-09T16:02:48;22.70;99.90
22635;DHT22;11484;50.858;4.384;2023-10-09T16:05:14;22.70;99.90
22635;DHT22;11484;50.858;4.384;2023-10-09T16:07:42;22.60;99.90
22635;DHT22;11484;50.858;4.384;2023-10-09T16:10:09;22.60;99.90
22635;DHT22;11484;50.858;4.384;2023-10-09T16:12:37;22.60;99.90
22635;DHT22;11484;50.858;4.384;2023-10-09T16:15:03;22.60;99.90
22635;DHT22;11484;50.858;4.384;2023-10-09T16:17:35;22.50;99.90
22635;DHT22;11484;50.858;4.384;2023-10-09T16:20:03;22.40;99.90
22635;DHT22;11484;50.858;4.384;2023-10-09T16:22:31;22.50;99.90
22635;DHT22;11484;50.858;4.384;2023-10-09T16:25:01;22.40;99.90